sensor_id;sensor_type;location;lat;lon;timestamp;P1;durP1;ratioP1;P2;durP2;ratioP2
5955;SDS011;3004;48.080;11.600;2022-10-16T00:00:10;67.77;;;9.67;;
5955;SDS011;3004;48.080;11.600;2022-10-16T00:02:40;69.63;;;10.47;;
5955;SDS011;3004;48.080;11.600;2022-10-16T00:05:21;67.57;;;9.80;;
5955;SDS011;3004;48.080;11.600;2022-10-16T00:08:11;67.67;;;10.27;;
5955;SDS011;3004;48.080;11.600;2022-10-16T00:11:07;67.57;;;9.93;;
5955;SDS011;3004;48.080;11.600;2022-10-16T00:13:48;67.57;;;9.93;;
5955;SDS011;3004;48.080;11.600;2022-10-16T00:16:17;67.63;;;9.83;;
5955;SDS011;3004;48.080;11.600;2022-10-16T00:19:04;67.60;;;9.83;;
5955;SDS011;3004;48.080;11.600;2022-10-16T00:21:42;67.73;;;9.87;;
5955;SDS011;3004;48.080;11.600;2022-10-16T00:24:15;67.87;;;9.77;;
5955;SDS011;3004;48.080;11.600;2022-10-16T00:26:48;67.80;;;9.77;;
5955;SDS011;3004;48.080;11.600;2022-10-16T00:32:01;68.07;;;9.87;;
5955;SDS011;3004;48.080;11.600;2022-10-16T00:34:39;67.73;;;9.77;;
5955;SDS011;3004;48.080;11.600;2022-10-16T00:37:28;68.03;;;9.77;;
5955;SDS011;3004;48.080;11.600;2022-10-16T00:40:23;67.97;;;9.67;;
5955;SDS011;3004;48.080;11.600;2022-10-16T00:43:14;67.87;;;9.77;;
5955;SDS011;3004;48.080;11.600;2022-10-16T00:46:15;67.67;;;9.83;;
5955;SDS011;3004;48.080;11.600;2022-10-16T00:48:56;68.17;;;9.67;;
5955;SDS011;3004;48.080;11.600;2022-10-16T00:51:30;67.67;;;9.73;;
5955;SDS011;3004;48.080;11.600;2022-10-16T00:54:17;67.63;;;9.73;;
5955;SDS011;3004;48.080;11.600;2022-10-16T00:56:48;68.03;;;9.77;;
5955;SDS011;3004;48.080;11.600;2022-10-16T00:59:31;67.97;;;9.80;;
5955;SDS011;3004;48.080;11.600;2022-10-16T01:03:21;68.03;;;10.07;;
5955;SDS011;3004;48.080;11.600;2022-10-16T01:05:29;67.87;;;9.77;;
5955;SDS011;3004;48.080;11.600;2022-10-16T01:08:53;67.77;;;9.83;;
5955;SDS011;3004;48.080;11.600;2022-10-16T01:11:38;67.67;;;9.93;;
5955;SDS011;3004;48.080;11.600;2022-10-16T01:14:24;67.47;;;10.03;;
5955;SDS011;3004;48.080;11.600;2022-10-16T01:17:02;67.37;;;9.93;;
5955;SDS011;3004;48.080;11.600;2022-10-16T01:19:50;67.50;;;10.00;;
5955;SDS011;3004;48.080;11.600;2022-10-16T01:22:37;67.63;;;10.00;;
5955;SDS011;3004;48.080;11.600;2022-10-16T01:25:21;67.47;;;9.97;;
5955;SDS011;3004;48.080;11.600;2022-10-16T01:28:10;67.83;;;9.87;;
5955;SDS011;3004;48.080;11.600;2022-10-16T01:31:26;67.63;;;9.87;;
5955;SDS011;3004;48.080;11.600;2022-10-16T01:34:12;67.47;;;9.80;;
5955;SDS011;3004;48.080;11.600;2022-10-16T01:37:05;67.87;;;9.80;;
5955;SDS011;3004;48.080;11.600;2022-10-16T01:39:42;69.10;;;10.77;;
5955;SDS011;3004;48.080;11.600;2022-10-16T01:42:19;67.67;;;9.83;;
5955;SDS011;3004;48.080;11.600;2022-10-16T01:48:05;67.77;;;9.77;;
5955;SDS011;3004;48.080;11.600;2022-10-16T02:13:26;67.17;;;9.93;;
5955;SDS011;3004;48.080;11.600;2022-10-16T07:46:27;63.50;;;11.73;;
5955;SDS011;3004;48.080;11.600;2022-10-16T07:49:01;63.23;;;11.57;;
5955;SDS011;3004;48.080;11.600;2022-10-16T07:51:31;63.43;;;11.57;;
5955;SDS011;3004;48.080;11.600;2022-10-16T07:54:04;63.57;;;11.77;;
5955;SDS011;3004;48.080;11.600;2022-10-16T07:56:53;63.63;;;11.63;;
5955;SDS011;3004;48.080;11.600;2022-10-16T07:59:29;63.57;;;11.53;;
5955;SDS011;3004;48.080;11.600;2022-10-16T08:04:55;64.03;;;11.43;;
5955;SDS011;3004;48.080;11.600;2022-10-16T08:07:50;65.47;;;11.23;;
5955;SDS011;3004;48.080;11.600;2022-10-16T08:10:47;65.27;;;11.17;;
5955;SDS011;3004;48.080;11.600;2022-10-16T08:14:03;65.57;;;11.17;;
5955;SDS011;3004;48.080;11.600;2022-10-16T08:17:26;66.77;;;10.83;;
5955;SDS011;3004;48.080;11.600;2022-10-16T08:20:45;68.67;;;10.10;;
5955;SDS011;3004;48.080;11.600;2022-10-16T08:23:46;68.30;;;10.33;;
5955;SDS011;3004;48.080;11.600;2022-10-16T08:26:48;69.57;;;10.33;;
5955;SDS011;3004;48.080;11.600;2022-10-16T08:30:05;68.97;;;10.23;;
5955;SDS011;3004;48.080;11.600;2022-10-16T08:50:01;68.40;;;7.30;;
5955;SDS011;3004;48.080;11.600;2022-10-16T09:03:29;67.03;;;5.50;;
5955;SDS011;3004;48.080;11.600;2022-10-16T09:06:29;66.60;;;4.50;;
5955;SDS011;3004;48.080;11.600;2022-10-16T09:09:12;66.30;;;3.77;;
5955;SDS011;3004;48.080;11.600;2022-10-16T09:15:51;66.30;;;3.67;;
5955;SDS011;3004;48.080;11.600;2022-10-16T15:16:40;66.70;;;1.10;;
5955;SDS011;3004;48.080;11.600;2022-10-16T15:19:24;66.70;;;1.20;;
5955;SDS011;3004;48.080;11.600;2022-10-16T15:22:17;66.80;;;1.10;;
5955;SDS011;3004;48.080;11.600;2022-10-16T15:25:19;66.97;;;1.33;;
5955;SDS011;3004;48.080;11.600;2022-10-16T15:28:35;66.70;;;1.30;;
5955;SDS011;3004;48.080;11.600;2022-10-16T17:07:56;66.93;;;2.90;;
5955;SDS011;3004;48.080;11.600;2022-10-16T17:10:56;66.70;;;2.87;;
5955;SDS011;3004;48.080;11.600;2022-10-16T17:13:32;66.70;;;2.80;;
5955;SDS011;3004;48.080;11.600;2022-10-16T17:16:13;66.80;;;3.00;;
5955;SDS011;3004;48.080;11.600;2022-10-16T17:19:10;67.03;;;3.10;;
5955;SDS011;3004;48.080;11.600;2022-10-16T17:22:39;67.43;;;3.00;;
5955;SDS011;3004;48.080;11.600;2022-10-16T17:28:25;67.17;;;3.40;;
5955;SDS011;3004;48.080;11.600;2022-10-16T17:33:54;68.90;;;4.10;;
5955;SDS011;3004;48.080;11.600;2022-10-16T17:36:29;69.80;;;4.37;;
5955;SDS011;3004;48.080;11.600;2022-10-16T17:39:15;67.57;;;3.77;;
5955;SDS011;3004;48.080;11.600;2022-10-16T17:48:52;67.97;;;4.10;;
5955;SDS011;3004;48.080;11.600;2022-10-16T17:55:21;68.43;;;4.63;;
5955;SDS011;3004;48.080;11.600;2022-10-16T18:03:09;78.07;;;8.40;;
